sensor_id;sensor_type;location;lat;lon;timestamp;P1;durP1;ratioP1;P2;durP2;ratioP2
16401;SDS011;8310;44.626;11.176;2024-01-27T00:00:55;58.47;;;49.08;;
16401;SDS011;8310;44.626;11.176;2024-01-27T00:03:22;56.97;;;46.90;;
16401;SDS011;8310;44.626;11.176;2024-01-27T00:05:52;56.77;;;47.13;;
16401;SDS011;8310;44.626;11.176;2024-01-27T00:08:20;54.95;;;45.38;;
16401;SDS011;8310;44.626;11.176;2024-01-27T00:10:48;54.88;;;45.30;;
16401;SDS011;8310;44.626;11.176;2024-01-27T00:13:15;54.73;;;45.07;;
16401;SDS011;8310;44.626;11.176;2024-01-27T00:15:44;56.30;;;47.97;;
16401;SDS011;8310;44.626;11.176;2024-01-27T00:18:12;66.85;;;51.80;;
16401;SDS011;8310;44.626;11.176;2024-01-27T00:20:41;77.77;;;48.80;;
16401;SDS011;8310;44.626;11.176;2024-01-27T00:23:10;78.50;;;50.63;;
16401;SDS011;8310;44.626;11.176;2024-01-27T00:25:39;399.60;;;52.25;;
16401;SDS011;8310;44.626;11.176;2024-01-27T00:28:06;439.98;;;52.58;;
16401;SDS011;8310;44.626;11.176;2024-01-27T00:30:34;571.45;;;54.00;;
16401;SDS011;8310;44.626;11.176;2024-01-27T00:33:03;307.83;;;47.90;;
16401;SDS011;8310;44.626;11.176;2024-01-27T00:35:31;443.98;;;49.25;;
16401;SDS011;8310;44.626;11.176;2024-01-27T00:37:58;455.30;;;47.45;;
16401;SDS011;8310;44.626;11.176;2024-01-27T00:40:29;435.37;;;47.63;;
16401;SDS011;8310;44.626;11.176;2024-01-27T00:42:57;325.25;;;48.67;;
16401;SDS011;8310;44.626;11.176;2024-01-27T00:45:29;463.10;;;47.87;;
16401;SDS011;8310;44.626;11.176;2024-01-27T00:47:57;496.02;;;47.97;;
16401;SDS011;8310;44.626;11.176;2024-01-27T00:50:24;369.80;;;49.85;;
16401;SDS011;8310;44.626;11.176;2024-01-27T00:52:52;257.73;;;50.17;;
16401;SDS011;8310;44.626;11.176;2024-01-27T00:55:20;178.25;;;48.13;;
16401;SDS011;8310;44.626;11.176;2024-01-27T00:57:50;481.67;;;52.33;;
16401;SDS011;8310;44.626;11.176;2024-01-27T01:00:19;237.40;;;51.35;;
16401;SDS011;8310;44.626;11.176;2024-01-27T01:02:47;386.73;;;53.15;;
16401;SDS011;8310;44.626;11.176;2024-01-27T01:05:15;431.40;;;52.78;;
16401;SDS011;8310;44.626;11.176;2024-01-27T01:07:43;497.40;;;51.07;;
16401;SDS011;8310;44.626;11.176;2024-01-27T01:10:10;396.93;;;49.90;;
16401;SDS011;8310;44.626;11.176;2024-01-27T01:12:37;651.97;;;49.00;;
16401;SDS011;8310;44.626;11.176;2024-01-27T01:15:08;530.80;;;47.95;;
16401;SDS011;8310;44.626;11.176;2024-01-27T01:17:36;372.65;;;48.35;;
16401;SDS011;8310;44.626;11.176;2024-01-27T01:20:04;396.20;;;47.50;;
16401;SDS011;8310;44.626;11.176;2024-01-27T01:22:32;402.80;;;47.63;;
16401;SDS011;8310;44.626;11.176;2024-01-27T01:25:00;414.65;;;45.67;;
16401;SDS011;8310;44.626;11.176;2024-01-27T01:27:27;344.95;;;46.42;;
16401;SDS011;8310;44.626;11.176;2024-01-27T01:29:55;514.70;;;47.92;;
16401;SDS011;8310;44.626;11.176;2024-01-27T01:32:25;485.13;;;48.55;;
16401;SDS011;8310;44.626;11.176;2024-01-27T01:34:52;448.63;;;46.72;;
16401;SDS011;8310;44.626;11.176;2024-01-27T01:37:19;404.90;;;45.42;;
16401;SDS011;8310;44.626;11.176;2024-01-27T01:39:47;276.15;;;42.65;;
16401;SDS011;8310;44.626;11.176;2024-01-27T01:42:15;220.07;;;41.55;;
16401;SDS011;8310;44.626;11.176;2024-01-27T01:44:42;205.98;;;40.22;;
16401;SDS011;8310;44.626;11.176;2024-01-27T01:47:10;220.02;;;41.28;;
16401;SDS011;8310;44.626;11.176;2024-01-27T01:49:39;160.65;;;38.33;;
16401;SDS011;8310;44.626;11.176;2024-01-27T01:52:08;173.63;;;37.70;;
16401;SDS011;8310;44.626;11.176;2024-01-27T01:54:37;166.27;;;39.63;;
16401;SDS011;8310;44.626;11.176;2024-01-27T01:57:04;157.68;;;37.70;;
16401;SDS011;8310;44.626;11.176;2024-01-27T01:59:33;130.67;;;41.60;;
16401;SDS011;8310;44.626;11.176;2024-01-27T02:02:05;149.77;;;40.67;;
16401;SDS011;8310;44.626;11.176;2024-01-27T02:04:40;137.30;;;41.30;;
16401;SDS011;8310;44.626;11.176;2024-01-27T02:07:08;134.33;;;42.50;;
16401;SDS011;8310;44.626;11.176;2024-01-27T02:09:35;136.45;;;40.50;;
16401;SDS011;8310;44.626;11.176;2024-01-27T02:12:03;191.13;;;41.85;;
16401;SDS011;8310;44.626;11.176;2024-01-27T02:14:31;172.15;;;43.70;;
16401;SDS011;8310;44.626;11.176;2024-01-27T02:16:59;183.15;;;41.00;;
16401;SDS011;8310;44.626;11.176;2024-01-27T02:19:27;204.85;;;42.72;;
16401;SDS011;8310;44.626;11.176;2024-01-27T02:21:58;206.55;;;40.35;;
16401;SDS011;8310;44.626;11.176;2024-01-27T02:24:28;183.45;;;42.25;;
16401;SDS011;8310;44.626;11.176;2024-01-27T02:26:56;161.45;;;41.65;;
16401;SDS011;8310;44.626;11.176;2024-01-27T02:29:23;143.88;;;40.50;;
16401;SDS011;8310;44.626;11.176;2024-01-27T02:31:52;137.50;;;39.73;;
16401;SDS011;8310;44.626;11.176;2024-01-27T02:34:20;169.25;;;38.47;;
16401;SDS011;8310;44.626;11.176;2024-01-27T02:36:48;157.48;;;37.25;;
16401;SDS011;8310;44.626;11.176;2024-01-27T02:39:16;145.30;;;41.10;;
16401;SDS011;8310;44.626;11.176;2024-01-27T02:41:45;167.27;;;39.37;;
16401;SDS011;8310;44.626;11.176;2024-01-27T02:44:14;169.43;;;40.80;;
16401;SDS011;8310;44.626;11.176;2024-01-27T02:46:41;223.77;;;40.50;;
16401;SDS011;8310;44.626;11.176;2024-01-27T02:49:09;254.05;;;38.28;;
16401;SDS011;8310;44.626;11.176;2024-01-27T02:51:40;235.32;;;40.08;;
16401;SDS011;8310;44.626;11.176;2024-01-27T02:54:08;146.60;;;40.10;;
16401;SDS011;8310;44.626;11.176;2024-01-27T02:56:36;123.68;;;38.80;;
16401;SDS011;8310;44.626;11.176;2024-01-27T02:59:06;107.38;;;40.38;;
16401;SDS011;8310;44.626;11.176;2024-01-27T03:01:34;111.53;;;39.78;;
16401;SDS011;8310;44.626;11.176;2024-01-27T03:04:02;341.83;;;38.00;;
16401;SDS011;8310;44.626;11.176;2024-01-27T03:06:30;462.75;;;40.80;;
16401;SDS011;8310;44.626;11.176;2024-01-27T03:08:58;412.42;;;42.95;;
16401;SDS011;8310;44.626;11.176;2024-01-27T03:11:25;285.48;;;42.83;;
16401;SDS011;8310;44.626;11.176;2024-01-27T03:13:53;279.15;;;41.58;;
16401;SDS011;8310;44.626;11.176;2024-01-27T03:16:22;206.23;;;39.97;;
16401;SDS011;8310;44.626;11.176;2024-01-27T03:18:49;209.60;;;40.70;;
16401;SDS011;8310;44.626;11.176;2024-01-27T03:21:16;192.75;;;39.78;;
16401;SDS011;8310;44.626;11.176;2024-01-27T03:23:44;272.63;;;41.10;;
16401;SDS011;8310;44.626;11.176;2024-01-27T03:26:12;267.48;;;42.38;;
16401;SDS011;8310;44.626;11.176;2024-01-27T03:28:40;280.65;;;40.78;;
16401;SDS011;8310;44.626;11.176;2024-01-27T03:31:08;296.05;;;42.67;;
16401;SDS011;8310;44.626;11.176;2024-01-27T03:33:38;315.52;;;42.95;;
16401;SDS011;8310;44.626;11.176;2024-01-27T03:36:08;341.92;;;41.67;;
16401;SDS011;8310;44.626;11.176;2024-01-27T03:38:37;367.10;;;42.77;;
16401;SDS011;8310;44.626;11.176;2024-01-27T03:41:05;413.42;;;41.22;;
16401;SDS011;8310;44.626;11.176;2024-01-27T03:43:33;323.15;;;41.10;;
16401;SDS011;8310;44.626;11.176;2024-01-27T03:46:01;420.58;;;43.47;;
16401;SDS011;8310;44.626;11.176;2024-01-27T03:48:29;265.73;;;39.58;;
16401;SDS011;8310;44.626;11.176;2024-01-27T03:50:59;277.35;;;40.88;;
16401;SDS011;8310;44.626;11.176;2024-01-27T03:53:26;301.52;;;40.55;;
16401;SDS011;8310;44.626;11.176;2024-01-27T03:55:55;316.30;;;41.83;;
16401;SDS011;8310;44.626;11.176;2024-01-27T03:58:23;339.13;;;38.97;;
16401;SDS011;8310;44.626;11.176;2024-01-27T04:00:51;360.40;;;41.03;;
16401;SDS011;8310;44.626;11.176;2024-01-27T04:03:19;300.92;;;40.00;;
16401;SDS011;8310;44.626;11.176;2024-01-27T04:05:47;297.23;;;38.95;;
16401;SDS011;8310;44.626;11.176;2024-01-27T04:08:16;261.45;;;39.20;;
16401;SDS011;8310;44.626;11.176;2024-01-27T04:10:44;257.35;;;38.20;;
16401;SDS011;8310;44.626;11.176;2024-01-27T04:13:11;229.23;;;38.30;;
16401;SDS011;8310;44.626;11.176;2024-01-27T04:15:39;229.93;;;36.35;;
16401;SDS011;8310;44.626;11.176;2024-01-27T04:18:07;279.77;;;37.03;;
16401;SDS011;8310;44.626;11.176;2024-01-27T04:20:36;249.77;;;35.45;;
16401;SDS011;8310;44.626;11.176;2024-01-27T04:23:04;160.48;;;33.72;;
16401;SDS011;8310;44.626;11.176;2024-01-27T04:25:33;158.15;;;35.83;;
16401;SDS011;8310;44.626;11.176;2024-01-27T04:28:02;170.82;;;34.20;;
16401;SDS011;8310;44.626;11.176;2024-01-27T04:30:31;149.32;;;34.13;;
16401;SDS011;8310;44.626;11.176;2024-01-27T04:32:58;86.10;;;34.50;;
16401;SDS011;8310;44.626;11.176;2024-01-27T04:35:26;125.73;;;33.77;;
16401;SDS011;8310;44.626;11.176;2024-01-27T04:37:53;151.80;;;32.60;;
16401;SDS011;8310;44.626;11.176;2024-01-27T04:40:22;142.00;;;33.40;;
16401;SDS011;8310;44.626;11.176;2024-01-27T04:42:51;205.15;;;34.78;;
16401;SDS011;8310;44.626;11.176;2024-01-27T04:45:18;183.90;;;33.28;;
16401;SDS011;8310;44.626;11.176;2024-01-27T04:47:46;156.63;;;31.98;;
16401;SDS011;8310;44.626;11.176;2024-01-27T04:50:13;187.02;;;34.10;;
16401;SDS011;8310;44.626;11.176;2024-01-27T04:52:41;168.77;;;31.83;;
16401;SDS011;8310;44.626;11.176;2024-01-27T04:55:09;157.82;;;32.83;;
16401;SDS011;8310;44.626;11.176;2024-01-27T04:57:37;102.75;;;33.00;;
16401;SDS011;8310;44.626;11.176;2024-01-27T05:00:07;153.38;;;34.22;;
16401;SDS011;8310;44.626;11.176;2024-01-27T05:02:37;120.78;;;33.75;;
16401;SDS011;8310;44.626;11.176;2024-01-27T05:05:05;99.90;;;33.20;;
16401;SDS011;8310;44.626;11.176;2024-01-27T05:07:34;116.25;;;36.50;;
16401;SDS011;8310;44.626;11.176;2024-01-27T05:10:02;110.83;;;36.40;;
16401;SDS011;8310;44.626;11.176;2024-01-27T05:12:29;94.88;;;35.95;;
16401;SDS011;8310;44.626;11.176;2024-01-27T05:14:58;86.53;;;34.70;;
16401;SDS011;8310;44.626;11.176;2024-01-27T05:17:27;66.38;;;32.38;;
16401;SDS011;8310;44.626;11.176;2024-01-27T05:19:55;82.60;;;34.53;;
16401;SDS011;8310;44.626;11.176;2024-01-27T05:22:24;71.80;;;36.05;;
16401;SDS011;8310;44.626;11.176;2024-01-27T05:24:51;51.38;;;34.70;;
16401;SDS011;8310;44.626;11.176;2024-01-27T05:27:19;60.53;;;40.03;;
16401;SDS011;8310;44.626;11.176;2024-01-27T05:29:46;99.07;;;55.35;;
16401;SDS011;8310;44.626;11.176;2024-01-27T05:32:14;82.23;;;41.93;;
16401;SDS011;8310;44.626;11.176;2024-01-27T05:34:43;48.67;;;39.27;;
16401;SDS011;8310;44.626;11.176;2024-01-27T05:37:11;47.63;;;39.88;;
16401;SDS011;8310;44.626;11.176;2024-01-27T05:39:39;47.33;;;40.67;;
16401;SDS011;8310;44.626;11.176;2024-01-27T05:42:07;47.63;;;40.83;;
16401;SDS011;8310;44.626;11.176;2024-01-27T05:44:34;49.87;;;41.80;;
16401;SDS011;8310;44.626;11.176;2024-01-27T05:47:03;45.42;;;37.80;;
16401;SDS011;8310;44.626;11.176;2024-01-27T05:49:30;47.08;;;40.13;;
16401;SDS011;8310;44.626;11.176;2024-01-27T05:51:59;55.65;;;43.22;;
16401;SDS011;8310;44.626;11.176;2024-01-27T05:54:28;54.90;;;43.70;;
16401;SDS011;8310;44.626;11.176;2024-01-27T05:56:55;52.90;;;43.38;;
16401;SDS011;8310;44.626;11.176;2024-01-27T05:59:23;50.25;;;41.38;;
16401;SDS011;8310;44.626;11.176;2024-01-27T06:01:51;55.13;;;45.65;;
16401;SDS011;8310;44.626;11.176;2024-01-27T06:04:18;57.38;;;46.40;;
16401;SDS011;8310;44.626;11.176;2024-01-27T06:06:47;53.88;;;44.10;;
16401;SDS011;8310;44.626;11.176;2024-01-27T06:09:16;54.38;;;43.42;;
16401;SDS011;8310;44.626;11.176;2024-01-27T06:11:44;53.90;;;43.58;;
16401;SDS011;8310;44.626;11.176;2024-01-27T06:14:12;55.50;;;43.20;;
16401;SDS011;8310;44.626;11.176;2024-01-27T06:16:40;53.28;;;43.72;;
16401;SDS011;8310;44.626;11.176;2024-01-27T06:19:10;49.63;;;41.60;;
16401;SDS011;8310;44.626;11.176;2024-01-27T06:21:39;49.30;;;39.88;;
16401;SDS011;8310;44.626;11.176;2024-01-27T06:24:06;52.03;;;41.28;;
16401;SDS011;8310;44.626;11.176;2024-01-27T06:26:36;51.53;;;41.45;;
16401;SDS011;8310;44.626;11.176;2024-01-27T06:29:04;51.15;;;40.30;;
16401;SDS011;8310;44.626;11.176;2024-01-27T06:31:32;55.97;;;44.35;;
16401;SDS011;8310;44.626;11.176;2024-01-27T06:34:00;54.20;;;42.58;;
16401;SDS011;8310;44.626;11.176;2024-01-27T06:36:28;52.38;;;42.15;;
16401;SDS011;8310;44.626;11.176;2024-01-27T06:38:55;53.10;;;42.50;;
16401;SDS011;8310;44.626;11.176;2024-01-27T06:41:23;52.88;;;41.08;;
16401;SDS011;8310;44.626;11.176;2024-01-27T06:43:52;53.83;;;42.30;;
16401;SDS011;8310;44.626;11.176;2024-01-27T06:46:20;56.13;;;42.85;;
16401;SDS011;8310;44.626;11.176;2024-01-27T06:48:48;55.85;;;42.83;;
16401;SDS011;8310;44.626;11.176;2024-01-27T06:51:15;59.30;;;44.30;;
16401;SDS011;8310;44.626;11.176;2024-01-27T06:53:43;64.00;;;46.22;;
16401;SDS011;8310;44.626;11.176;2024-01-27T06:56:11;68.63;;;48.08;;
16401;SDS011;8310;44.626;11.176;2024-01-27T06:58:39;68.10;;;49.70;;
16401;SDS011;8310;44.626;11.176;2024-01-27T07:01:09;67.75;;;49.78;;
16401;SDS011;8310;44.626;11.176;2024-01-27T07:03:35;70.40;;;49.53;;
16401;SDS011;8310;44.626;11.176;2024-01-27T07:06:04;67.47;;;46.90;;
16401;SDS011;8310;44.626;11.176;2024-01-27T07:08:32;68.78;;;47.75;;
16401;SDS011;8310;44.626;11.176;2024-01-27T07:11:00;67.82;;;47.10;;
16401;SDS011;8310;44.626;11.176;2024-01-27T07:13:30;73.95;;;48.13;;
16401;SDS011;8310;44.626;11.176;2024-01-27T07:15:58;65.40;;;47.85;;
16401;SDS011;8310;44.626;11.176;2024-01-27T07:18:27;66.90;;;46.33;;
16401;SDS011;8310;44.626;11.176;2024-01-27T07:20:55;68.32;;;46.35;;
16401;SDS011;8310;44.626;11.176;2024-01-27T07:23:24;65.75;;;45.33;;
16401;SDS011;8310;44.626;11.176;2024-01-27T07:25:52;66.63;;;46.55;;
16401;SDS011;8310;44.626;11.176;2024-01-27T07:28:20;64.15;;;44.58;;
16401;SDS011;8310;44.626;11.176;2024-01-27T07:30:48;63.72;;;42.88;;
16401;SDS011;8310;44.626;11.176;2024-01-27T07:33:15;61.67;;;42.22;;
16401;SDS011;8310;44.626;11.176;2024-01-27T07:35:44;58.67;;;40.97;;
16401;SDS011;8310;44.626;11.176;2024-01-27T07:38:12;56.50;;;40.60;;
16401;SDS011;8310;44.626;11.176;2024-01-27T07:40:43;58.27;;;39.13;;
16401;SDS011;8310;44.626;11.176;2024-01-27T07:43:11;55.28;;;35.67;;
16401;SDS011;8310;44.626;11.176;2024-01-27T07:45:38;50.45;;;35.45;;
16401;SDS011;8310;44.626;11.176;2024-01-27T07:48:06;50.63;;;33.78;;
16401;SDS011;8310;44.626;11.176;2024-01-27T07:50:34;49.67;;;32.65;;
16401;SDS011;8310;44.626;11.176;2024-01-27T07:53:03;50.60;;;34.58;;
16401;SDS011;8310;44.626;11.176;2024-01-27T07:55:31;46.80;;;32.90;;
16401;SDS011;8310;44.626;11.176;2024-01-27T07:57:58;50.35;;;34.03;;
16401;SDS011;8310;44.626;11.176;2024-01-27T08:00:28;50.75;;;34.75;;
16401;SDS011;8310;44.626;11.176;2024-01-27T08:02:56;49.80;;;31.75;;
16401;SDS011;8310;44.626;11.176;2024-01-27T08:05:25;50.92;;;33.95;;
16401;SDS011;8310;44.626;11.176;2024-01-27T08:07:55;49.03;;;33.35;;
16401;SDS011;8310;44.626;11.176;2024-01-27T08:10:24;51.17;;;33.55;;
16401;SDS011;8310;44.626;11.176;2024-01-27T08:12:52;50.45;;;34.03;;
16401;SDS011;8310;44.626;11.176;2024-01-27T08:15:20;49.95;;;31.95;;
16401;SDS011;8310;44.626;11.176;2024-01-27T08:17:47;48.17;;;31.05;;
16401;SDS011;8310;44.626;11.176;2024-01-27T08:20:16;48.25;;;31.58;;
16401;SDS011;8310;44.626;11.176;2024-01-27T08:22:43;46.13;;;31.70;;
16401;SDS011;8310;44.626;11.176;2024-01-27T08:25:11;47.40;;;31.20;;
16401;SDS011;8310;44.626;11.176;2024-01-27T08:27:39;50.00;;;33.95;;
16401;SDS011;8310;44.626;11.176;2024-01-27T08:30:07;48.70;;;31.23;;
16401;SDS011;8310;44.626;11.176;2024-01-27T08:32:36;54.85;;;36.38;;
16401;SDS011;8310;44.626;11.176;2024-01-27T08:35:04;52.33;;;35.80;;
16401;SDS011;8310;44.626;11.176;2024-01-27T08:37:32;55.17;;;36.40;;
16401;SDS011;8310;44.626;11.176;2024-01-27T08:40:04;54.38;;;37.90;;
16401;SDS011;8310;44.626;11.176;2024-01-27T08:42:32;56.72;;;37.63;;
16401;SDS011;8310;44.626;11.176;2024-01-27T08:45:01;61.85;;;42.42;;
16401;SDS011;8310;44.626;11.176;2024-01-27T08:47:31;65.97;;;44.60;;
16401;SDS011;8310;44.626;11.176;2024-01-27T08:49:58;62.70;;;45.05;;
16401;SDS011;8310;44.626;11.176;2024-01-27T08:52:26;68.70;;;46.97;;
16401;SDS011;8310;44.626;11.176;2024-01-27T08:54:55;69.60;;;46.25;;
16401;SDS011;8310;44.626;11.176;2024-01-27T08:57:22;69.15;;;47.40;;
16401;SDS011;8310;44.626;11.176;2024-01-27T08:59:49;70.60;;;48.33;;
16401;SDS011;8310;44.626;11.176;2024-01-27T09:02:18;68.47;;;48.53;;
16401;SDS011;8310;44.626;11.176;2024-01-27T09:04:46;70.93;;;49.63;;
16401;SDS011;8310;44.626;11.176;2024-01-27T09:07:13;68.88;;;48.28;;
16401;SDS011;8310;44.626;11.176;2024-01-27T09:09:40;68.53;;;48.57;;
16401;SDS011;8310;44.626;11.176;2024-01-27T09:12:08;65.25;;;46.72;;
16401;SDS011;8310;44.626;11.176;2024-01-27T09:14:35;70.15;;;49.17;;
16401;SDS011;8310;44.626;11.176;2024-01-27T09:17:03;67.60;;;47.13;;
16401;SDS011;8310;44.626;11.176;2024-01-27T09:19:32;66.15;;;47.60;;
16401;SDS011;8310;44.626;11.176;2024-01-27T09:22:00;62.88;;;45.85;;
16401;SDS011;8310;44.626;11.176;2024-01-27T09:24:27;62.28;;;44.55;;
16401;SDS011;8310;44.626;11.176;2024-01-27T09:26:55;61.50;;;43.95;;
16401;SDS011;8310;44.626;11.176;2024-01-27T09:29:22;60.45;;;42.70;;
16401;SDS011;8310;44.626;11.176;2024-01-27T09:31:51;60.83;;;44.17;;
16401;SDS011;8310;44.626;11.176;2024-01-27T09:34:19;60.40;;;43.25;;
16401;SDS011;8310;44.626;11.176;2024-01-27T09:36:48;61.20;;;44.05;;
16401;SDS011;8310;44.626;11.176;2024-01-27T09:39:16;58.50;;;44.13;;
16401;SDS011;8310;44.626;11.176;2024-01-27T09:41:44;61.20;;;43.75;;
16401;SDS011;8310;44.626;11.176;2024-01-27T09:44:14;61.50;;;44.05;;
16401;SDS011;8310;44.626;11.176;2024-01-27T09:46:45;64.50;;;44.10;;
16401;SDS011;8310;44.626;11.176;2024-01-27T09:49:13;60.80;;;42.47;;
16401;SDS011;8310;44.626;11.176;2024-01-27T09:51:41;59.00;;;41.78;;
16401;SDS011;8310;44.626;11.176;2024-01-27T09:54:11;59.28;;;40.30;;
16401;SDS011;8310;44.626;11.176;2024-01-27T09:56:38;52.75;;;39.42;;
16401;SDS011;8310;44.626;11.176;2024-01-27T09:59:06;51.80;;;39.43;;
16401;SDS011;8310;44.626;11.176;2024-01-27T10:01:36;51.63;;;36.92;;
16401;SDS011;8310;44.626;11.176;2024-01-27T10:04:04;48.55;;;34.85;;
16401;SDS011;8310;44.626;11.176;2024-01-27T10:06:34;47.50;;;34.20;;
16401;SDS011;8310;44.626;11.176;2024-01-27T10:09:03;50.28;;;36.47;;
16401;SDS011;8310;44.626;11.176;2024-01-27T10:11:33;46.30;;;34.25;;
16401;SDS011;8310;44.626;11.176;2024-01-27T10:14:07;46.73;;;33.60;;
16401;SDS011;8310;44.626;11.176;2024-01-27T10:16:39;40.23;;;29.73;;
16401;SDS011;8310;44.626;11.176;2024-01-27T10:19:11;40.58;;;29.00;;
16401;SDS011;8310;44.626;11.176;2024-01-27T10:21:42;34.10;;;26.07;;
16401;SDS011;8310;44.626;11.176;2024-01-27T10:24:12;36.40;;;26.77;;
16401;SDS011;8310;44.626;11.176;2024-01-27T10:26:42;32.87;;;24.73;;
16401;SDS011;8310;44.626;11.176;2024-01-27T10:29:10;31.80;;;23.52;;
16401;SDS011;8310;44.626;11.176;2024-01-27T10:31:38;32.43;;;22.90;;
16401;SDS011;8310;44.626;11.176;2024-01-27T10:34:07;32.08;;;23.35;;
16401;SDS011;8310;44.626;11.176;2024-01-27T10:36:40;32.22;;;22.67;;
16401;SDS011;8310;44.626;11.176;2024-01-27T10:39:15;30.63;;;22.90;;
16401;SDS011;8310;44.626;11.176;2024-01-27T10:41:45;29.95;;;22.13;;
16401;SDS011;8310;44.626;11.176;2024-01-27T10:44:14;30.65;;;21.60;;
16401;SDS011;8310;44.626;11.176;2024-01-27T10:46:43;29.33;;;23.40;;
16401;SDS011;8310;44.626;11.176;2024-01-27T10:49:13;29.60;;;21.70;;
16401;SDS011;8310;44.626;11.176;2024-01-27T10:51:43;30.40;;;23.15;;
16401;SDS011;8310;44.626;11.176;2024-01-27T10:54:14;30.80;;;23.15;;
16401;SDS011;8310;44.626;11.176;2024-01-27T10:56:46;35.17;;;23.50;;
16401;SDS011;8310;44.626;11.176;2024-01-27T10:59:15;36.00;;;26.38;;
16401;SDS011;8310;44.626;11.176;2024-01-27T11:01:44;40.27;;;27.63;;
16401;SDS011;8310;44.626;11.176;2024-01-27T11:04:12;43.28;;;29.45;;
16401;SDS011;8310;44.626;11.176;2024-01-27T11:06:41;38.73;;;28.87;;
16401;SDS011;8310;44.626;11.176;2024-01-27T11:09:10;37.47;;;25.95;;
16401;SDS011;8310;44.626;11.176;2024-01-27T11:11:39;35.43;;;24.50;;
16401;SDS011;8310;44.626;11.176;2024-01-27T11:14:14;32.95;;;25.80;;
16401;SDS011;8310;44.626;11.176;2024-01-27T11:16:42;35.65;;;25.98;;
16401;SDS011;8310;44.626;11.176;2024-01-27T11:19:12;39.30;;;29.30;;
16401;SDS011;8310;44.626;11.176;2024-01-27T11:21:39;37.80;;;27.73;;
16401;SDS011;8310;44.626;11.176;2024-01-27T11:24:14;40.87;;;31.80;;
16401;SDS011;8310;44.626;11.176;2024-01-27T11:26:42;45.17;;;32.60;;
16401;SDS011;8310;44.626;11.176;2024-01-27T11:29:10;42.63;;;32.13;;
16401;SDS011;8310;44.626;11.176;2024-01-27T11:31:46;41.65;;;33.83;;
16401;SDS011;8310;44.626;11.176;2024-01-27T11:34:14;43.28;;;31.98;;
16401;SDS011;8310;44.626;11.176;2024-01-27T11:36:45;43.23;;;32.50;;
16401;SDS011;8310;44.626;11.176;2024-01-27T11:39:25;43.35;;;33.28;;
16401;SDS011;8310;44.626;11.176;2024-01-27T11:41:53;42.33;;;33.38;;
16401;SDS011;8310;44.626;11.176;2024-01-27T11:44:33;41.92;;;32.42;;
16401;SDS011;8310;44.626;11.176;2024-01-27T11:47:03;38.55;;;30.60;;
16401;SDS011;8310;44.626;11.176;2024-01-27T11:49:32;43.97;;;33.77;;
16401;SDS011;8310;44.626;11.176;2024-01-27T11:52:03;41.95;;;33.25;;
16401;SDS011;8310;44.626;11.176;2024-01-27T11:54:33;41.83;;;33.28;;
16401;SDS011;8310;44.626;11.176;2024-01-27T11:57:01;42.55;;;31.92;;
16401;SDS011;8310;44.626;11.176;2024-01-27T11:59:29;40.85;;;31.10;;
16401;SDS011;8310;44.626;11.176;2024-01-27T12:01:58;39.30;;;31.58;;
16401;SDS011;8310;44.626;11.176;2024-01-27T12:04:30;41.08;;;31.60;;
16401;SDS011;8310;44.626;11.176;2024-01-27T12:06:57;40.25;;;30.85;;
16401;SDS011;8310;44.626;11.176;2024-01-27T12:09:26;37.20;;;30.60;;
16401;SDS011;8310;44.626;11.176;2024-01-27T12:11:54;41.83;;;31.75;;
16401;SDS011;8310;44.626;11.176;2024-01-27T12:14:21;38.20;;;29.40;;
16401;SDS011;8310;44.626;11.176;2024-01-27T12:16:50;38.58;;;30.42;;
16401;SDS011;8310;44.626;11.176;2024-01-27T12:19:18;42.17;;;31.73;;
16401;SDS011;8310;44.626;11.176;2024-01-27T12:21:50;41.25;;;32.55;;
16401;SDS011;8310;44.626;11.176;2024-01-27T12:24:17;34.92;;;28.17;;
16401;SDS011;8310;44.626;11.176;2024-01-27T12:26:45;37.72;;;29.55;;
16401;SDS011;8310;44.626;11.176;2024-01-27T12:29:12;37.08;;;29.42;;
16401;SDS011;8310;44.626;11.176;2024-01-27T12:31:42;36.20;;;29.95;;
16401;SDS011;8310;44.626;11.176;2024-01-27T12:34:11;39.08;;;30.88;;
16401;SDS011;8310;44.626;11.176;2024-01-27T12:36:40;35.63;;;30.13;;
16401;SDS011;8310;44.626;11.176;2024-01-27T12:39:09;38.05;;;29.83;;
16401;SDS011;8310;44.626;11.176;2024-01-27T12:41:37;36.55;;;28.90;;
16401;SDS011;8310;44.626;11.176;2024-01-27T12:44:05;37.85;;;30.98;;
16401;SDS011;8310;44.626;11.176;2024-01-27T12:46:33;38.53;;;31.00;;
16401;SDS011;8310;44.626;11.176;2024-01-27T12:49:01;38.53;;;32.27;;
16401;SDS011;8310;44.626;11.176;2024-01-27T12:51:30;39.50;;;32.13;;
16401;SDS011;8310;44.626;11.176;2024-01-27T12:53:57;37.05;;;31.00;;
16401;SDS011;8310;44.626;11.176;2024-01-27T12:56:27;37.03;;;29.90;;
16401;SDS011;8310;44.626;11.176;2024-01-27T12:58:54;38.95;;;32.75;;
16401;SDS011;8310;44.626;11.176;2024-01-27T13:01:22;39.03;;;31.35;;
16401;SDS011;8310;44.626;11.176;2024-01-27T13:03:49;41.80;;;31.77;;
16401;SDS011;8310;44.626;11.176;2024-01-27T13:06:17;40.30;;;30.98;;
16401;SDS011;8310;44.626;11.176;2024-01-27T13:08:45;38.53;;;32.03;;
16401;SDS011;8310;44.626;11.176;2024-01-27T13:11:13;39.45;;;32.92;;
16401;SDS011;8310;44.626;11.176;2024-01-27T13:13:44;42.40;;;33.37;;
16401;SDS011;8310;44.626;11.176;2024-01-27T13:16:11;42.50;;;34.22;;
16401;SDS011;8310;44.626;11.176;2024-01-27T13:18:39;45.13;;;34.20;;
16401;SDS011;8310;44.626;11.176;2024-01-27T13:21:06;45.07;;;34.10;;
16401;SDS011;8310;44.626;11.176;2024-01-27T13:23:34;48.80;;;35.92;;
16401;SDS011;8310;44.626;11.176;2024-01-27T13:26:02;42.05;;;34.47;;
16401;SDS011;8310;44.626;11.176;2024-01-27T13:28:29;43.42;;;34.60;;
16401;SDS011;8310;44.626;11.176;2024-01-27T13:30:58;43.95;;;34.40;;
16401;SDS011;8310;44.626;11.176;2024-01-27T13:33:26;43.72;;;34.10;;
16401;SDS011;8310;44.626;11.176;2024-01-27T13:35:55;51.73;;;39.50;;
16401;SDS011;8310;44.626;11.176;2024-01-27T13:38:23;59.35;;;44.53;;
16401;SDS011;8310;44.626;11.176;2024-01-27T13:40:51;58.40;;;45.23;;
16401;SDS011;8310;44.626;11.176;2024-01-27T13:43:19;60.73;;;45.70;;
16401;SDS011;8310;44.626;11.176;2024-01-27T13:45:47;64.97;;;46.17;;
16401;SDS011;8310;44.626;11.176;2024-01-27T13:48:16;62.10;;;44.90;;
16401;SDS011;8310;44.626;11.176;2024-01-27T13:50:44;60.70;;;46.05;;
16401;SDS011;8310;44.626;11.176;2024-01-27T13:53:12;62.30;;;46.95;;
16401;SDS011;8310;44.626;11.176;2024-01-27T13:55:40;64.70;;;47.80;;
16401;SDS011;8310;44.626;11.176;2024-01-27T13:58:09;63.33;;;46.72;;
16401;SDS011;8310;44.626;11.176;2024-01-27T14:00:39;63.43;;;47.13;;
16401;SDS011;8310;44.626;11.176;2024-01-27T14:03:07;62.93;;;47.77;;
16401;SDS011;8310;44.626;11.176;2024-01-27T14:05:37;64.93;;;46.73;;
16401;SDS011;8310;44.626;11.176;2024-01-27T14:08:06;66.72;;;49.58;;
16401;SDS011;8310;44.626;11.176;2024-01-27T14:10:35;68.72;;;50.13;;
16401;SDS011;8310;44.626;11.176;2024-01-27T14:13:03;67.38;;;49.83;;
16401;SDS011;8310;44.626;11.176;2024-01-27T14:15:34;66.73;;;50.60;;
16401;SDS011;8310;44.626;11.176;2024-01-27T14:18:01;67.10;;;48.63;;
16401;SDS011;8310;44.626;11.176;2024-01-27T14:20:31;68.00;;;50.85;;
16401;SDS011;8310;44.626;11.176;2024-01-27T14:23:03;67.90;;;50.25;;
16401;SDS011;8310;44.626;11.176;2024-01-27T14:25:31;67.68;;;49.15;;